Time;durP1;ratioP1;P1;durP2;ratioP2;P2;SDS_P1;SDS_P2;PMS_P1;PMS_P2;Temp;Humidity;BMP_temperature;BMP_pressure;BME280_temperature;BME280_humidity;BME280_pressure;Samples;Min_cycle;Max_cycle;Signal;HPM_P1;HPM_P2
2021/04/30 00:01:14;;;;;;;14.10;5.95;;;;;;;7.12;86.25;100618.72;5042901;28;20037;-73
2021/04/30 00:03:40;;;;;;;17.50;6.28;;;;;;;7.04;86.59;100610.25;5043400;28;20417;-72
2021/04/30 00:06:05;;;;;;;28.00;6.78;;;;;;;7.00;86.91;100611.38;5042627;28;20091;-72
2021/04/30 00:08:30;;;;;;;15.00;7.15;;;;;;;7.13;86.52;100611.59;5043892;28;20469;-71
2021/04/30 00:10:57;;;;;;;13.00;5.72;;;;;;;7.15;86.63;100609.72;5039001;28;20037;-71
2021/04/30 00:13:23;;;;;;;14.48;6.82;;;;;;;7.18;86.47;100618.41;5043990;28;20435;-71
2021/04/30 00:15:49;;;;;;;15.35;6.10;;;;;;;7.15;86.94;100613.25;5042237;28;20124;-71
2021/04/30 00:18:15;;;;;;;15.38;6.50;;;;;;;7.25;86.68;100622.50;5044022;28;20110;-72
2021/04/30 00:20:50;;;;;;;15.27;6.38;;;;;;;7.25;86.07;100621.63;5042944;28;21089;-71
2021/04/30 00:23:16;;;;;;;17.90;7.18;;;;;;;7.12;87.03;100631.22;5044436;28;20115;-71
2021/04/30 00:25:42;;;;;;;22.63;8.02;;;;;;;7.10;87.28;100628.63;5040584;28;20178;-71
2021/04/30 00:28:07;;;;;;;39.90;8.93;;;;;;;7.17;87.18;100624.69;5044294;28;20123;-71
2021/04/30 00:30:35;;;;;;;18.88;6.85;;;;;;;7.28;86.27;100622.31;5043594;28;20117;-71
2021/04/30 00:33:01;;;;;;;18.98;7.30;;;;;;;7.29;87.17;100629.41;5057882;28;20037;-72
2021/04/30 00:35:26;;;;;;;18.85;7.20;;;;;;;7.18;87.20;100626.44;5039827;28;20052;-72
2021/04/30 00:37:52;;;;;;;20.35;7.32;;;;;;;7.22;87.48;100637.81;5042227;28;20525;-71
2021/04/30 00:40:17;;;;;;;15.77;7.88;;;;;;;7.21;87.38;100631.63;5043424;28;20926;-70
2021/04/30 00:42:43;;;;;;;16.13;7.07;;;;;;;7.27;87.05;100636.66;5041712;28;20075;-70
2021/04/30 00:45:15;;;;;;;20.08;8.63;;;;;;;7.27;86.48;100636.66;5044318;28;20041;-71
2021/04/30 00:47:41;;;;;;;19.92;7.63;;;;;;;7.22;87.05;100632.50;5042652;28;20024;-71
2021/04/30 00:50:09;;;;;;;19.17;7.95;;;;;;;7.28;86.92;100635.66;5044535;28;20762;-70
2021/04/30 00:52:37;;;;;;;19.50;6.75;;;;;;;7.20;87.16;100635.22;5044469;28;20021;-70
2021/04/30 00:55:06;;;;;;;15.57;7.00;;;;;;;7.25;86.54;100638.50;5044356;28;20078;-71
2021/04/30 00:57:32;;;;;;;17.77;7.97;;;;;;;7.20;86.85;100637.91;5050878;28;20072;-71
2021/04/30 00:59:58;;;;;;;14.43;7.50;;;;;;;7.28;87.15;100637.50;5042317;28;20060;-72
2021/04/30 01:02:23;;;;;;;15.82;7.50;;;;;;;7.27;87.34;100633.97;5044972;28;20036;-71
2021/04/30 01:04:49;;;;;;;21.95;7.68;;;;;;;7.37;86.63;100631.66;5045013;28;20037;-71
2021/04/30 01:07:14;;;;;;;24.35;8.13;;;;;;;7.35;86.96;100632.69;5041039;28;20132;-71
2021/04/30 01:09:40;;;;;;;20.92;8.10;;;;;;;7.37;86.67;100636.16;5042045;28;20031;-72
2021/04/30 01:12:07;;;;;;;21.23;8.65;;;;;;;7.37;86.57;100637.00;5035772;28;20041;-72
2021/04/30 01:14:32;;;;;;;15.18;8.00;;;;;;;7.26;87.25;100640.25;5043324;28;20099;-72
2021/04/30 01:16:58;;;;;;;20.05;7.50;;;;;;;7.19;87.96;100644.16;5043121;28;20051;-71
2021/04/30 01:19:25;;;;;;;30.45;8.80;;;;;;;7.38;86.58;100637.88;5032424;28;20704;-71
2021/04/30 01:21:56;;;;;;;21.48;8.38;;;;;;;7.27;87.05;100652.66;5044471;28;20469;-71
2021/04/30 01:24:22;;;;;;;26.15;8.75;;;;;;;7.23;87.56;100651.06;5044103;28;20394;-71
2021/04/30 01:26:48;;;;;;;18.90;8.35;;;;;;;7.32;87.58;100652.41;5044192;28;20041;-70
2021/04/30 01:29:14;;;;;;;18.15;8.25;;;;;;;7.27;87.12;100658.00;5043906;28;20036;-71
2021/04/30 01:31:40;;;;;;;17.85;7.85;;;;;;;7.35;87.45;100664.72;5044979;28;20037;-70
2021/04/30 01:34:05;;;;;;;21.10;8.68;;;;;;;7.31;87.65;100662.22;5034216;28;20524;-71
2021/04/30 01:36:31;;;;;;;15.23;7.90;;;;;;;7.29;87.99;100672.09;5048854;28;20124;-70
2021/04/30 01:38:59;;;;;;;19.45;8.10;;;;;;;7.32;87.15;100661.28;5030287;28;20097;-71
2021/04/30 01:41:24;;;;;;;18.50;8.32;;;;;;;7.34;87.50;100669.22;5047922;28;20044;-71
2021/04/30 01:43:50;;;;;;;19.58;7.60;;;;;;;7.34;87.22;100671.03;5046712;28;20078;-71
2021/04/30 01:46:16;;;;;;;19.15;7.90;;;;;;;7.27;87.53;100666.00;5046358;28;20072;-72
2021/04/30 01:48:42;;;;;;;16.77;8.35;;;;;;;7.25;87.25;100675.91;5042603;28;20444;-71
2021/04/30 01:51:07;;;;;;;18.77;7.22;;;;;;;7.29;87.21;100669.44;5045373;28;20029;-71
2021/04/30 01:53:36;;;;;;;23.65;9.05;;;;;;;7.25;87.41;100665.22;5049463;28;20045;-70
2021/04/30 01:56:14;;;;;;;14.93;6.93;;;;;;;7.20;87.03;100672.59;5046903;28;20029;-71
2021/04/30 01:58:41;;;;;;;23.65;8.00;;;;;;;7.18;87.13;100674.47;5043892;28;20107;-70
2021/04/30 02:01:09;;;;;;;16.52;7.60;;;;;;;7.11;87.41;100667.72;5046444;28;20136;-71
2021/04/30 02:03:34;;;;;;;22.80;7.97;;;;;;;7.09;87.44;100669.63;5048753;28;20064;-72
2021/04/30 02:06:00;;;;;;;12.90;7.13;;;;;;;7.14;86.87;100672.91;5045241;28;20067;-70
2021/04/30 02:08:26;;;;;;;18.75;7.65;;;;;;;7.14;87.10;100670.25;5045005;28;20033;-71
2021/04/30 02:10:53;;;;;;;16.60;8.32;;;;;;;7.06;87.53;100674.22;5043930;28;20610;-71
2021/04/30 02:13:20;;;;;;;19.98;7.70;;;;;;;7.07;87.86;100670.63;5046576;28;20036;-70
2021/04/30 02:15:47;;;;;;;20.35;8.18;;;;;;;7.18;87.11;100674.47;5033439;28;20170;-71
2021/04/30 02:18:14;;;;;;;21.27;8.88;;;;;;;7.10;87.34;100674.00;5047231;28;20065;-71
2021/04/30 02:20:41;;;;;;;16.40;7.65;;;;;;;7.03;87.57;100675.28;5042836;28;20453;-71
2021/04/30 02:23:06;;;;;;;17.05;9.18;;;;;;;7.06;87.40;100672.44;5048093;28;20075;-72
2021/04/30 02:25:32;;;;;;;21.83;8.02;;;;;;;7.03;86.88;100669.94;5045428;28;20032;-71
2021/04/30 02:27:59;;;;;;;18.08;7.95;;;;;;;6.97;87.04;100669.38;5047478;28;20599;-70
2021/04/30 02:30:26;;;;;;;18.85;8.57;;;;;;;6.98;87.16;100668.41;5027981;28;20389;-71
2021/04/30 02:32:52;;;;;;;21.33;8.35;;;;;;;6.93;87.34;100667.78;5046082;28;20491;-71
2021/04/30 02:35:26;;;;;;;21.65;8.80;;;;;;;6.97;87.53;100672.03;5044715;28;20035;-71
2021/04/30 02:37:53;;;;;;;15.88;7.80;;;;;;;7.03;87.38;100669.94;5043964;28;20025;-71
2021/04/30 02:40:21;;;;;;;19.45;8.23;;;;;;;6.96;87.06;100664.97;5044171;28;20636;-70
2021/04/30 02:42:47;;;;;;;21.63;9.35;;;;;;;7.00;87.42;100667.41;5044505;28;20037;-70
2021/04/30 02:45:15;;;;;;;23.02;9.90;;;;;;;6.95;87.70;100673.91;5046182;28;20029;-70
2021/04/30 02:47:46;;;;;;;20.70;9.82;;;;;;;6.97;87.82;100664.91;5046209;28;20075;-71
2021/04/30 02:50:14;;;;;;;22.55;9.13;;;;;;;7.00;88.00;100659.41;5046651;28;20504;-71
2021/04/30 02:52:39;;;;;;;23.10;9.55;;;;;;;7.03;87.47;100664.59;5047455;28;20040;-71
2021/04/30 02:55:05;;;;;;;22.85;10.15;;;;;;;7.00;87.62;100664.72;5050212;28;20052;-71
2021/04/30 02:57:32;;;;;;;21.85;9.38;;;;;;;6.98;88.57;100666.59;5025567;28;20112;-71
2021/04/30 02:59:59;;;;;;;26.95;10.82;;;;;;;6.94;88.97;100662.38;5046565;28;20055;-72
2021/04/30 03:02:26;;;;;;;40.42;12.13;;;;;;;6.94;89.76;100665.03;5046863;28;20157;-71
2021/04/30 03:04:51;;;;;;;31.17;11.48;;;;;;;6.91;91.41;100665.22;5046223;28;20497;-71
2021/04/30 03:07:17;;;;;;;20.13;10.80;;;;;;;6.98;91.97;100666.59;5045982;28;20033;-72
2021/04/30 03:09:43;;;;;;;23.27;11.70;;;;;;;6.89;92.16;100664.41;5045946;28;20080;-71
2021/04/30 03:12:09;;;;;;;23.75;11.13;;;;;;;6.90;92.82;100666.16;5046601;28;20028;-71
2021/04/30 03:14:34;;;;;;;21.52;11.73;;;;;;;6.98;92.71;100666.59;5044417;28;20448;-72
2021/04/30 03:17:00;;;;;;;25.58;12.43;;;;;;;6.89;92.19;100670.63;5046500;28;20473;-71
2021/04/30 03:19:25;;;;;;;25.35;11.60;;;;;;;6.89;93.04;100664.41;5045249;28;20673;-72
2021/04/30 03:21:51;;;;;;;25.60;12.80;;;;;;;6.81;93.53;100661.25;5046851;28;20051;-71
2021/04/30 03:24:16;;;;;;;30.55;12.57;;;;;;;6.82;92.96;100650.50;5044432;28;20033;-72
2021/04/30 03:26:42;;;;;;;23.98;12.60;;;;;;;6.86;92.38;100657.41;5044653;28;20633;-72
2021/04/30 03:29:07;;;;;;;26.50;13.05;;;;;;;6.86;92.11;100651.22;5044204;28;20021;-71
2021/04/30 03:31:33;;;;;;;20.30;12.10;;;;;;;6.86;91.99;100656.53;5045958;28;20028;-71
2021/04/30 03:33:58;;;;;;;24.13;12.85;;;;;;;6.86;91.74;100664.56;5043008;28;20025;-71
2021/04/30 03:36:24;;;;;;;21.55;12.85;;;;;;;6.75;92.46;100658.88;5058853;28;20033;-72
2021/04/30 03:38:50;;;;;;;25.98;12.75;;;;;;;6.83;92.58;100665.59;5043475;28;20025;-71
2021/04/30 03:41:16;;;;;;;29.02;15.82;;;;;;;6.85;92.95;100670.84;5046597;28;20084;-71
2021/04/30 03:43:43;;;;;;;28.48;13.40;;;;;;;6.77;92.85;100667.69;5043378;28;20021;-72
2021/04/30 03:46:09;;;;;;;20.83;12.90;;;;;;;6.86;92.11;100675.22;5045974;28;20114;-71
2021/04/30 03:48:34;;;;;;;29.95;15.05;;;;;;;6.91;92.28;100673.22;5044009;28;20587;-71
2021/04/30 03:51:00;;;;;;;29.10;14.25;;;;;;;6.96;91.80;100689.00;5044980;28;20586;-71
2021/04/30 03:53:26;;;;;;;30.23;15.63;;;;;;;6.85;91.89;100690.38;5041913;28;20040;-71
2021/04/30 03:55:52;;;;;;;28.17;16.35;;;;;;;6.87;91.74;100700.97;5044613;28;20033;-71
2021/04/30 03:58:18;;;;;;;25.90;16.63;;;;;;;6.99;91.64;100695.03;5045639;28;20032;-71
2021/04/30 04:00:44;;;;;;;35.08;18.15;;;;;;;6.89;91.96;100691.09;5045353;28;20033;-70
2021/04/30 04:03:10;;;;;;;33.55;18.17;;;;;;;6.87;91.69;100687.63;5046235;28;20041;-72
2021/04/30 04:05:35;;;;;;;43.00;20.63;;;;;;;6.86;90.83;100680.56;5043558;28;20020;-72
2021/04/30 04:08:01;;;;;;;37.45;19.73;;;;;;;6.80;91.44;100678.19;5045341;28;20113;-71
2021/04/30 04:10:27;;;;;;;35.97;18.50;;;;;;;6.81;91.84;100677.25;5048103;28;20110;-71
2021/04/30 04:12:52;;;;;;;37.22;17.92;;;;;;;6.85;91.93;100670.84;5046332;28;20025;-71
2021/04/30 04:15:18;;;;;;;36.20;17.55;;;;;;;6.85;91.38;100677.03;5042831;28;20029;-73
2021/04/30 04:17:43;;;;;;;33.83;17.58;;;;;;;6.77;92.13;100673.03;5058201;28;20037;-72
2021/04/30 04:20:10;;;;;;;30.85;17.35;;;;;;;6.74;92.35;100673.16;5030818;28;20545;-71
2021/04/30 04:22:36;;;;;;;35.15;17.85;;;;;;;6.79;92.03;100671.13;5055501;28;20045;-72
2021/04/30 04:25:03;;;;;;;40.83;20.20;;;;;;;6.92;91.92;100680.25;5040870;28;20029;-71
2021/04/30 04:27:28;;;;;;;36.92;17.48;;;;;;;6.94;91.15;100681.06;5040904;28;20060;-70
2021/04/30 04:29:54;;;;;;;38.45;17.95;;;;;;;6.80;91.71;100675.53;5046131;28;20132;-70
2021/04/30 04:32:19;;;;;;;30.23;17.85;;;;;;;6.81;92.24;100679.94;5054492;28;20078;-69
2021/04/30 04:34:45;;;;;;;32.22;18.63;;;;;;;6.89;92.01;100677.75;5047519;28;20491;-70
2021/04/30 04:37:10;;;;;;;27.83;18.20;;;;;;;6.79;92.88;100676.47;5039048;28;20044;-70
2021/04/30 04:39:36;;;;;;;36.53;17.75;;;;;;;6.90;92.56;100685.69;5046194;28;20036;-69
2021/04/30 04:42:06;;;;;;;35.03;18.60;;;;;;;6.91;92.47;100683.88;5042921;28;20397;-71
2021/04/30 04:44:32;;;;;;;32.80;17.75;;;;;;;6.85;92.92;100685.03;5045066;28;20040;-71
2021/04/30 04:46:57;;;;;;;41.17;19.38;;;;;;;6.88;92.94;100679.56;5048833;28;20029;-70
2021/04/30 04:49:23;;;;;;;36.40;17.60;;;;;;;6.82;93.45;100684.34;5036880;28;20051;-69
2021/04/30 04:51:49;;;;;;;28.02;18.63;;;;;;;6.80;93.27;100680.88;5046435;28;20079;-71
2021/04/30 04:54:14;;;;;;;32.42;18.40;;;;;;;6.85;93.33;100682.34;5050275;28;20525;-69
2021/04/30 04:56:40;;;;;;;32.20;18.77;;;;;;;6.90;93.08;100696.38;5043805;28;20017;-70
2021/04/30 04:59:05;;;;;;;31.40;17.98;;;;;;;6.81;93.58;100690.59;5044989;28;20033;-70
2021/04/30 05:01:30;;;;;;;34.90;18.52;;;;;;;6.80;93.86;100699.53;5045018;28;20025;-69
2021/04/30 05:03:56;;;;;;;36.92;19.30;;;;;;;6.88;93.41;100708.03;5058062;28;20037;-69
2021/04/30 05:06:21;;;;;;;36.03;19.65;;;;;;;6.82;93.71;100703.88;5050418;28;20096;-71
2021/04/30 05:08:47;;;;;;;30.70;19.48;;;;;;;6.83;93.78;100710.06;5048153;28;20033;-70
2021/04/30 05:11:12;;;;;;;35.97;18.85;;;;;;;6.90;93.65;100708.84;5052058;28;20032;-70
2021/04/30 05:13:38;;;;;;;34.35;19.23;;;;;;;6.95;93.79;100712.13;5051995;28;20074;-72
2021/04/30 05:16:03;;;;;;;32.95;18.63;;;;;;;6.89;93.70;100712.44;5050707;28;20033;-69
2021/04/30 05:18:31;;;;;;;33.75;17.98;;;;;;;6.93;94.03;100722.00;5051835;28;20033;-70
2021/04/30 05:20:56;;;;;;;36.95;18.92;;;;;;;6.87;94.38;100728.50;5047400;28;20278;-70
2021/04/30 05:23:23;;;;;;;31.80;18.80;;;;;;;6.91;93.99;100721.25;5073561;23;20455;-73
2021/04/30 05:25:51;;;;;;;34.42;19.30;;;;;;;6.86;94.26;100716.09;5082952;28;20460;-74
2021/04/30 05:28:17;;;;;;;39.42;19.35;;;;;;;6.92;92.91;100730.94;5052196;28;20036;-74
2021/04/30 05:30:42;;;;;;;43.45;19.10;;;;;;;6.86;93.06;100725.91;5047433;28;20033;-74
2021/04/30 05:33:08;;;;;;;29.95;17.98;;;;;;;6.89;93.06;100725.78;5048836;28;20119;-74
2021/04/30 05:35:34;;;;;;;31.40;18.40;;;;;;;6.93;92.83;100727.34;5065196;28;20509;-76
2021/04/30 05:38:00;;;;;;;34.35;18.73;;;;;;;6.96;92.39;100721.88;5044989;28;20041;-76
2021/04/30 05:40:26;;;;;;;34.65;18.45;;;;;;;6.85;92.98;100730.38;5046122;28;20024;-76
2021/04/30 05:42:52;;;;;;;35.38;17.60;;;;;;;6.90;92.87;100733.72;5043839;28;20257;-76
2021/04/30 05:45:18;;;;;;;33.00;17.80;;;;;;;6.95;92.22;100730.81;5050993;28;20036;-76
2021/04/30 05:47:44;;;;;;;30.30;17.17;;;;;;;6.96;91.98;100729.00;5035815;28;20017;-76
2021/04/30 05:50:11;;;;;;;34.15;18.65;;;;;;;6.98;91.23;100735.97;5051216;28;20126;-76
2021/04/30 05:52:36;;;;;;;36.92;18.15;;;;;;;6.88;91.82;100735.59;5075855;28;20445;-76
2021/04/30 05:55:04;;;;;;;28.25;17.83;;;;;;;6.91;91.89;100731.91;5067357;28;20246;-76
2021/04/30 05:57:30;;;;;;;31.55;17.23;;;;;;;6.85;92.46;100732.22;5050207;28;20039;-76
2021/04/30 05:59:56;;;;;;;38.20;17.67;;;;;;;6.83;92.74;100740.28;5064429;28;20531;-76
2021/04/30 06:02:21;;;;;;;27.55;17.17;;;;;;;7.02;91.67;100747.41;5062859;28;20068;-76
2021/04/30 06:04:47;;;;;;;33.03;18.63;;;;;;;6.96;91.61;100737.88;5048156;28;20098;-76
2021/04/30 06:07:12;;;;;;;34.60;18.05;;;;;;;6.93;91.79;100745.16;5048272;28;20033;-76
2021/04/30 06:09:38;;;;;;;34.28;18.48;;;;;;;7.07;91.08;100745.34;5055370;28;20620;-76
2021/04/30 06:12:04;;;;;;;37.17;17.70;;;;;;;6.99;91.20;100748.41;5070761;28;20115;-76
2021/04/30 06:14:30;;;;;;;30.20;17.20;;;;;;;6.93;91.57;100754.03;5050368;28;20033;-76
2021/04/30 06:16:57;;;;;;;38.05;17.83;;;;;;;6.97;91.73;100752.97;5056426;28;20405;-76
2021/04/30 06:19:23;;;;;;;35.55;17.48;;;;;;;7.01;91.67;100751.84;5044604;28;20404;-76
2021/04/30 06:21:49;;;;;;;34.05;17.52;;;;;;;7.04;91.64;100749.03;5069941;28;20044;-76
2021/04/30 06:24:14;;;;;;;41.15;18.65;;;;;;;6.99;92.46;100748.41;5048548;28;20037;-76
2021/04/30 06:26:40;;;;;;;39.28;17.27;;;;;;;6.95;92.75;100730.81;5071700;28;20143;-76
2021/04/30 06:29:05;;;;;;;34.38;17.42;;;;;;;7.10;92.10;100740.72;5029232;28;20048;-76
2021/04/30 06:31:31;;;;;;;31.85;18.08;;;;;;;7.14;91.60;100739.66;5055766;28;20039;-76
2021/04/30 06:33:56;;;;;;;36.10;18.48;;;;;;;7.18;92.10;100741.22;5048514;28;20033;-76
2021/04/30 06:36:22;;;;;;;34.05;17.77;;;;;;;7.17;91.92;100747.47;5050203;28;20024;-76
2021/04/30 06:38:47;;;;;;;33.17;18.10;;;;;;;7.05;92.15;100756.09;5052473;28;20667;-76
2021/04/30 06:41:13;;;;;;;36.97;18.98;;;;;;;7.01;92.71;100756.34;5054652;28;20523;-76
2021/04/30 06:43:39;;;;;;;36.47;17.40;;;;;;;7.17;92.17;100757.28;5040350;28;20048;-76
2021/04/30 06:46:04;;;;;;;39.88;18.50;;;;;;;7.10;92.46;100756.72;5046093;28;20547;-76
2021/04/30 06:48:30;;;;;;;35.10;18.33;;;;;;;7.03;93.09;100766.00;5048045;28;20029;-76
2021/04/30 06:50:56;;;;;;;33.90;18.67;;;;;;;6.97;94.15;100758.31;5026078;28;20032;-76
2021/04/30 06:53:21;;;;;;;34.72;17.55;;;;;;;7.01;94.01;100757.19;5047496;28;20040;-76
2021/04/30 06:55:47;;;;;;;35.47;18.20;;;;;;;7.12;93.58;100762.00;5050261;28;20029;-76
2021/04/30 06:58:12;;;;;;;38.10;19.45;;;;;;;7.15;94.18;100767.19;5053077;28;20041;-76
2021/04/30 07:00:38;;;;;;;35.53;17.92;;;;;;;7.17;93.87;100768.84;5052069;28;20040;-76
2021/04/30 07:03:03;;;;;;;33.10;18.70;;;;;;;7.19;94.18;100776.78;5039542;28;20155;-76
2021/04/30 07:05:29;;;;;;;36.25;19.85;;;;;;;7.30;94.04;100774.44;5045883;28;20831;-76
2021/04/30 07:07:57;;;;;;;39.95;20.27;;;;;;;7.25;93.16;100772.00;5046283;28;20021;-76
2021/04/30 07:10:23;;;;;;;30.48;18.48;;;;;;;7.36;93.02;100774.13;5046065;28;20584;-77
2021/04/30 07:12:50;;;;;;;36.08;19.80;;;;;;;7.30;92.62;100769.97;5065025;28;20033;-76
2021/04/30 07:15:17;;;;;;;35.70;18.58;;;;;;;7.21;93.78;100764.22;5047023;28;20371;-76
2021/04/30 07:17:43;;;;;;;37.17;19.25;;;;;;;7.30;94.27;100763.75;5049955;28;20028;-76
2021/04/30 07:20:10;;;;;;;37.83;19.65;;;;;;;7.36;93.80;100771.47;5052898;28;20045;-77
2021/04/30 07:22:35;;;;;;;34.50;18.90;;;;;;;7.31;93.90;100770.81;5040238;28;20056;-76
2021/04/30 07:25:00;;;;;;;35.45;21.08;;;;;;;7.43;94.15;100774.69;5041625;28;20076;-76
2021/04/30 07:27:27;;;;;;;36.28;20.40;;;;;;;7.43;93.93;100769.34;5030196;28;20032;-76
2021/04/30 07:29:52;;;;;;;40.83;20.83;;;;;;;7.39;94.05;100771.31;5058276;28;20028;-76
2021/04/30 07:32:17;;;;;;;33.88;19.73;;;;;;;7.50;94.01;100776.09;5047356;28;20059;-76
2021/04/30 07:34:43;;;;;;;37.85;20.80;;;;;;;7.54;93.77;100783.00;5062983;28;20107;-76
2021/04/30 07:37:09;;;;;;;42.67;21.52;;;;;;;7.56;94.62;100779.34;5040623;28;20056;-76
2021/04/30 07:39:35;;;;;;;34.85;21.02;;;;;;;7.50;94.82;100781.44;5046664;28;20032;-76
2021/04/30 07:42:02;;;;;;;37.67;21.02;;;;;;;7.49;94.87;100785.06;5043049;28;20033;-76
2021/04/30 07:44:28;;;;;;;46.03;20.30;;;;;;;7.59;94.82;100783.66;5039586;28;20474;-77
2021/04/30 07:46:53;;;;;;;41.42;20.88;;;;;;;7.54;95.43;100778.53;5040960;28;20059;-77
2021/04/30 07:49:19;;;;;;;37.97;20.48;;;;;;;7.57;95.47;100782.88;5048077;28;20475;-76
2021/04/30 07:51:44;;;;;;;38.67;21.90;;;;;;;7.55;96.42;100784.75;5033671;28;20119;-77
2021/04/30 07:54:11;;;;;;;46.13;21.08;;;;;;;7.62;96.70;100791.50;5026217;28;20040;-76
2021/04/30 07:56:37;;;;;;;42.75;21.17;;;;;;;7.71;97.19;100791.88;5036138;28;20070;-76
2021/04/30 07:59:05;;;;;;;43.65;23.00;;;;;;;7.66;97.12;100790.41;5041304;28;20029;-76
2021/04/30 08:01:34;;;;;;;35.20;20.48;;;;;;;7.64;97.67;100794.97;5062759;28;20040;-76
2021/04/30 08:03:59;;;;;;;36.10;21.23;;;;;;;7.77;97.41;100790.75;5047791;28;20530;-76
2021/04/30 08:06:25;;;;;;;38.22;21.95;;;;;;;7.79;97.35;100799.53;5045939;28;20041;-76
2021/04/30 08:08:50;;;;;;;34.47;20.02;;;;;;;7.91;96.08;100793.53;5053180;28;20028;-76
2021/04/30 08:11:16;;;;;;;47.25;21.50;;;;;;;7.91;95.00;100787.31;5046231;28;20091;-76
2021/04/30 08:13:41;;;;;;;38.70;21.63;;;;;;;7.86;95.15;100795.59;5050873;28;20032;-76
2021/04/30 08:16:09;;;;;;;41.30;21.27;;;;;;;7.94;94.88;100790.72;5041339;28;20426;-76
2021/04/30 08:18:35;;;;;;;43.22;21.67;;;;;;;7.93;94.63;100791.66;5044954;28;20493;-76
2021/04/30 08:21:00;;;;;;;39.85;21.48;;;;;;;8.03;93.56;100792.91;5040608;28;20036;-76
2021/04/30 08:23:26;;;;;;;43.55;21.60;;;;;;;8.08;93.81;100792.69;5040464;28;20056;-77
2021/04/30 08:25:51;;;;;;;36.15;22.25;;;;;;;8.00;94.17;100793.06;5035060;28;20029;-77
2021/04/30 08:28:17;;;;;;;39.70;21.98;;;;;;;8.00;95.15;100802.91;5041871;28;20040;-77
2021/04/30 08:30:42;;;;;;;37.45;20.60;;;;;;;8.11;94.67;100800.53;5048083;28;20071;-76
2021/04/30 08:33:08;;;;;;;37.80;22.23;;;;;;;8.14;94.96;100803.03;5047877;28;20508;-76
2021/04/30 08:35:36;;;;;;;46.38;22.08;;;;;;;8.24;94.80;100806.09;5044936;28;20125;-76
2021/04/30 08:38:04;;;;;;;46.15;22.75;;;;;;;8.36;94.79;100802.78;5044578;28;20040;-76
2021/04/30 08:40:30;;;;;;;52.95;21.38;;;;;;;8.46;94.18;100802.19;5063206;28;20048;-76
2021/04/30 08:43:02;;;;;;;49.15;22.42;;;;;;;8.46;94.09;100807.53;5046908;28;20541;-76
2021/04/30 08:45:28;;;;;;;44.60;20.83;;;;;;;8.50;92.64;100809.13;5034208;28;20388;-76
2021/04/30 08:47:54;;;;;;;37.67;20.10;;;;;;;8.75;92.23;100807.78;5022512;28;20208;-76
2021/04/30 08:50:23;;;;;;;42.72;21.10;;;;;;;8.81;92.15;100807.44;5029909;28;20044;-77
2021/04/30 08:52:48;;;;;;;33.58;19.20;;;;;;;8.80;91.39;100811.94;5020681;28;20044;-76
2021/04/30 08:55:16;;;;;;;40.90;20.00;;;;;;;8.73;92.13;100815.03;5038740;28;20041;-76
2021/04/30 08:57:46;;;;;;;37.92;19.80;;;;;;;8.78;91.46;100819.16;5037693;28;20037;-76
2021/04/30 09:00:14;;;;;;;39.10;19.67;;;;;;;8.91;91.38;100824.69;5037796;28;20037;-77
2021/04/30 09:02:40;;;;;;;40.25;19.65;;;;;;;8.93;90.53;100823.69;5046400;28;20033;-76
2021/04/30 09:05:08;;;;;;;38.40;19.52;;;;;;;8.81;91.83;100818.16;5038534;28;20039;-76
2021/04/30 09:07:43;;;;;;;34.95;19.65;;;;;;;8.79;91.81;100823.56;5050905;28;20056;-76
2021/04/30 09:10:16;;;;;;;33.42;18.58;;;;;;;8.82;91.87;100830.59;5050069;28;20740;-76
2021/04/30 09:12:48;;;;;;;36.13;19.60;;;;;;;8.83;92.16;100830.47;5060458;28;20032;-76
2021/04/30 09:15:22;;;;;;;37.67;19.33;;;;;;;8.92;92.36;100832.66;5027586;28;20045;-76
2021/04/30 09:17:47;;;;;;;32.92;20.10;;;;;;;9.03;90.62;100831.19;5044153;28;20210;-76
2021/04/30 09:20:13;;;;;;;45.22;22.17;;;;;;;9.02;89.56;100832.13;5042316;28;20116;-76
2021/04/30 09:22:41;;;;;;;48.00;22.05;;;;;;;9.01;90.06;100827.75;5042268;28;20041;-76
2021/04/30 09:25:09;;;;;;;33.35;20.02;;;;;;;9.11;89.66;100832.50;5036089;28;20040;-76
2021/04/30 09:27:34;;;;;;;38.78;18.83;;;;;;;9.19;89.24;100834.75;5027559;28;20067;-77
2021/04/30 09:30:32;;;;;;;37.30;19.65;;;;;;;9.12;89.58;100833.34;5026953;28;20485;-76
2021/04/30 09:33:04;;;;;;;47.58;20.98;;;;;;;9.20;89.69;100833.75;5044838;28;20074;-76
2021/04/30 09:35:30;;;;;;;;;;;;;;;9.43;88.46;100830.66;5050550;28;20033;-76
2021/04/30 09:37:57;;;;;;;35.33;18.75;;;;;;;9.44;87.99;100829.72;5046336;28;19966;-76
2021/04/30 09:40:29;;;;;;;34.03;20.70;;;;;;;9.49;88.02;100832.13;5032857;28;20520;-76
2021/04/30 09:43:06;;;;;;;39.25;19.67;;;;;;;9.44;88.08;100840.44;5044061;28;20033;-76
2021/04/30 09:45:32;;;;;;;32.20;19.38;;;;;;;9.43;88.65;100844.06;5043883;28;20120;-76
2021/04/30 09:48:01;;;;;;;42.50;20.42;;;;;;;9.51;89.00;100839.09;5041327;28;20383;-76
2021/04/30 09:50:28;;;;;;;37.28;19.75;;;;;;;9.53;88.69;100845.25;5033047;28;20083;-76
2021/04/30 09:52:58;;;;;;;37.92;18.77;;;;;;;9.52;88.39;100843.50;5046686;28;20457;-76
2021/04/30 09:55:48;;;;;;;41.05;18.35;;;;;;;9.53;88.68;100839.88;5044271;28;20039;-76
2021/04/30 09:58:17;;;;;;;38.50;18.85;;;;;;;9.65;88.67;100839.16;5059818;28;20029;-76
2021/04/30 10:00:46;;;;;;;48.80;19.80;;;;;;;9.77;87.23;100842.06;5054291;28;20052;-76
2021/04/30 10:03:15;;;;;;;36.47;19.02;;;;;;;10.14;85.56;100849.66;5047369;28;20108;-76
2021/04/30 10:06:06;;;;;;;39.67;20.00;;;;;;;10.22;84.86;100842.03;5048328;28;20032;-76
2021/04/30 10:08:34;;;;;;;34.92;18.67;;;;;;;10.33;84.32;100846.75;5056942;28;20024;-76
2021/04/30 10:11:00;;;;;;;28.30;18.05;;;;;;;10.46;83.32;100837.84;5050277;28;20037;-77
2021/04/30 10:13:26;;;;;;;44.80;18.25;;;;;;;10.48;82.99;100841.31;5052566;28;20036;-76
2021/04/30 10:15:51;;;;;;;40.28;18.70;;;;;;;10.64;83.76;100840.34;5047834;28;20403;-76
2021/04/30 10:18:18;;;;;;;34.75;18.40;;;;;;;10.86;81.96;100843.41;5044855;28;20107;-76
2021/04/30 10:20:48;;;;;;;33.22;17.48;;;;;;;10.96;80.51;100841.88;5038914;28;20040;-76
2021/04/30 10:23:22;;;;;;;33.58;17.45;;;;;;;11.06;80.69;100837.63;5043957;28;20531;-76
2021/04/30 10:25:50;;;;;;;34.58;16.92;;;;;;;11.21;80.14;100833.09;5044647;28;20098;-76
2021/04/30 10:28:27;;;;;;;37.28;17.23;;;;;;;11.47;78.71;100828.69;5064345;28;20390;-76
2021/04/30 10:31:05;;;;;;;35.08;16.15;;;;;;;11.61;77.97;100823.25;5041576;28;20112;-76
2021/04/30 10:33:54;;;;;;;31.80;16.73;;;;;;;11.71;77.72;100824.38;5040937;28;20033;-76
2021/04/30 10:36:28;;;;;;;32.97;15.82;;;;;;;11.79;76.84;100830.09;5061443;28;20028;-76
2021/04/30 10:38:57;;;;;;;23.10;15.60;;;;;;;11.85;76.69;100827.00;5047060;28;20032;-75
2021/04/30 10:41:33;;;;;;;39.60;15.10;;;;;;;11.75;76.14;100826.78;5062877;28;20048;-76
2021/04/30 10:44:25;;;;;;;29.35;15.10;;;;;;;12.09;76.10;100825.34;5031696;28;20044;-76
2021/04/30 10:47:11;;;;;;;28.88;14.50;;;;;;;12.38;74.90;100819.75;5034328;28;20053;-76
2021/04/30 10:49:38;;;;;;;28.98;14.05;;;;;;;12.48;73.77;100823.50;5022118;28;20041;-76
2021/04/30 10:52:07;;;;;;;36.22;14.25;;;;;;;12.69;73.12;100824.69;5042338;28;20056;-76
2021/04/30 10:54:34;;;;;;;25.08;13.48;;;;;;;12.97;72.18;100819.03;5038450;28;20120;-76
2021/04/30 10:57:02;;;;;;;34.75;17.02;;;;;;;13.01;71.80;100824.22;5025910;28;20102;-76
2021/04/30 10:59:40;;;;;;;26.40;14.98;;;;;;;13.05;71.03;100825.69;5026901;28;20391;-76
2021/04/30 11:02:12;;;;;;;36.83;13.85;;;;;;;13.21;70.00;100812.84;5041573;28;20033;-76
2021/04/30 11:04:37;;;;;;;35.00;14.38;;;;;;;13.30;68.44;100822.97;5041759;28;20120;-76
2021/04/30 11:07:06;;;;;;;27.15;13.73;;;;;;;13.35;68.42;100818.09;5034501;28;20027;-76
2021/04/30 11:09:34;;;;;;;34.33;13.82;;;;;;;13.22;68.01;100820.81;5047180;28;20051;-76
2021/04/30 11:12:02;;;;;;;66.65;27.00;;;;;;;13.39;70.12;100808.81;5047453;28;20095;-76
2021/04/30 11:14:29;;;;;;;57.70;24.80;;;;;;;13.61;67.50;100808.06;5046814;28;20355;-76
2021/04/30 11:16:56;;;;;;;66.05;23.83;;;;;;;13.99;67.64;100802.44;5044580;28;20528;-76
2021/04/30 11:19:24;;;;;;;31.52;14.52;;;;;;;14.10;65.61;100800.63;5040001;28;20053;-76